sensor_id;sensor_type;location;lat;lon;timestamp;pressure;altitude;pressure_sealevel;temperature;humidity
59545;BME280;45368;55.002;-1.592;2023-06-26T00:01:50;100361.51;;;15.93;62.25
59545;BME280;45368;55.002;-1.592;2023-06-26T00:04:18;100362.91;;;15.63;62.39
59545;BME280;45368;55.002;-1.592;2023-06-26T00:06:47;100363.85;;;15.86;61.33
59545;BME280;45368;55.002;-1.592;2023-06-26T00:09:15;100364.93;;;15.85;61.58
59545;BME280;45368;55.002;-1.592;2023-06-26T00:11:42;100365.64;;;15.88;61.37
59545;BME280;45368;55.002;-1.592;2023-06-26T00:14:10;100371.76;;;15.43;62.95
59545;BME280;45368;55.002;-1.592;2023-06-26T00:17:30;100374.67;;;15.27;63.24
59545;BME280;45368;55.002;-1.592;2023-06-26T00:20:13;100371.70;;;15.94;61.97
59545;BME280;45368;55.002;-1.592;2023-06-26T00:33:36;100381.49;;;15.02;65.88
59545;BME280;45368;55.002;-1.592;2023-06-26T00:36:03;100381.48;;;13.28;64.41
59545;BME280;45368;55.002;-1.592;2023-06-26T00:38:30;100387.66;;;15.51;61.89
59545;BME280;45368;55.002;-1.592;2023-06-26T00:40:58;100385.34;;;15.04;63.14
59545;BME280;45368;55.002;-1.592;2023-06-26T00:43:24;100383.62;;;14.71;63.87
59545;BME280;45368;55.002;-1.592;2023-06-26T00:45:51;100391.43;;;15.55;62.22
59545;BME280;45368;55.002;-1.592;2023-06-26T00:48:19;100389.87;;;15.09;63.07
59545;BME280;45368;55.002;-1.592;2023-06-26T00:50:47;100388.86;;;15.21;62.96
59545;BME280;45368;55.002;-1.592;2023-06-26T00:53:14;100388.45;;;15.40;61.65
59545;BME280;45368;55.002;-1.592;2023-06-26T00:55:42;100389.53;;;15.72;60.74
59545;BME280;45368;55.002;-1.592;2023-06-26T00:58:09;100388.46;;;15.48;61.51
59545;BME280;45368;55.002;-1.592;2023-06-26T01:00:37;100387.91;;;14.78;63.58
59545;BME280;45368;55.002;-1.592;2023-06-26T01:03:03;100390.00;;;14.88;62.69
59545;BME280;45368;55.002;-1.592;2023-06-26T01:05:31;100394.74;;;15.02;61.75
59545;BME280;45368;55.002;-1.592;2023-06-26T01:07:59;100388.95;;;15.04;61.20
59545;BME280;45368;55.002;-1.592;2023-06-26T01:10:27;100396.38;;;13.85;64.10
59545;BME280;45368;55.002;-1.592;2023-06-26T01:12:54;100400.13;;;14.41;62.47
59545;BME280;45368;55.002;-1.592;2023-06-26T01:15:22;100397.33;;;14.65;62.19
59545;BME280;45368;55.002;-1.592;2023-06-26T01:17:51;100400.83;;;14.45;63.19
59545;BME280;45368;55.002;-1.592;2023-06-26T01:20:19;100406.86;;;13.96;64.43
59545;BME280;45368;55.002;-1.592;2023-06-26T01:22:52;100405.48;;;13.62;66.26
59545;BME280;45368;55.002;-1.592;2023-06-26T01:25:31;100406.81;;;14.47;63.09
59545;BME280;45368;55.002;-1.592;2023-06-26T01:28:00;100409.75;;;15.05;62.52
59545;BME280;45368;55.002;-1.592;2023-06-26T01:30:28;100416.00;;;14.23;64.79
59545;BME280;45368;55.002;-1.592;2023-06-26T01:32:56;100419.31;;;13.68;65.15
59545;BME280;45368;55.002;-1.592;2023-06-26T01:35:24;100418.34;;;13.87;64.54
59545;BME280;45368;55.002;-1.592;2023-06-26T01:37:52;100418.09;;;14.71;63.25
59545;BME280;45368;55.002;-1.592;2023-06-26T01:40:20;100419.38;;;14.15;63.73
59545;BME280;45368;55.002;-1.592;2023-06-26T01:42:47;100418.54;;;14.75;62.14
59545;BME280;45368;55.002;-1.592;2023-06-26T01:45:22;100420.49;;;15.05;61.46
59545;BME280;45368;55.002;-1.592;2023-06-26T01:47:52;100425.12;;;15.14;60.51
59545;BME280;45368;55.002;-1.592;2023-06-26T01:50:23;100424.46;;;14.88;61.32
59545;BME280;45368;55.002;-1.592;2023-06-26T01:52:57;100422.26;;;14.69;61.88
59545;BME280;45368;55.002;-1.592;2023-06-26T01:55:32;100422.73;;;15.09;60.77
59545;BME280;45368;55.002;-1.592;2023-06-26T01:58:04;100423.79;;;15.37;59.81
59545;BME280;45368;55.002;-1.592;2023-06-26T02:00:32;100423.58;;;14.87;61.49
59545;BME280;45368;55.002;-1.592;2023-06-26T02:02:59;100425.22;;;13.82;63.11
59545;BME280;45368;55.002;-1.592;2023-06-26T02:05:26;100424.75;;;14.25;62.57
59545;BME280;45368;55.002;-1.592;2023-06-26T02:07:54;100426.79;;;14.70;62.69
59545;BME280;45368;55.002;-1.592;2023-06-26T02:10:21;100430.96;;;14.53;62.55
59545;BME280;45368;55.002;-1.592;2023-06-26T02:12:48;100435.86;;;13.99;63.41
59545;BME280;45368;55.002;-1.592;2023-06-26T02:15:16;100431.14;;;14.23;62.38
59545;BME280;45368;55.002;-1.592;2023-06-26T02:17:43;100432.42;;;14.48;61.74
59545;BME280;45368;55.002;-1.592;2023-06-26T02:20:10;100432.74;;;14.84;61.09
59545;BME280;45368;55.002;-1.592;2023-06-26T02:22:37;100436.62;;;15.12;61.11
59545;BME280;45368;55.002;-1.592;2023-06-26T02:25:06;100436.05;;;14.43;62.01
59545;BME280;45368;55.002;-1.592;2023-06-26T02:27:34;100443.60;;;14.13;64.14
59545;BME280;45368;55.002;-1.592;2023-06-26T02:30:00;100443.90;;;14.15;63.42
59545;BME280;45368;55.002;-1.592;2023-06-26T02:32:28;100440.53;;;13.98;64.55
59545;BME280;45368;55.002;-1.592;2023-06-26T02:34:56;100443.33;;;14.57;63.44
59545;BME280;45368;55.002;-1.592;2023-06-26T02:37:22;100450.97;;;14.10;62.73
59545;BME280;45368;55.002;-1.592;2023-06-26T02:39:49;100448.88;;;14.54;62.19
59545;BME280;45368;55.002;-1.592;2023-06-26T02:42:17;100453.27;;;13.85;64.53
59545;BME280;45368;55.002;-1.592;2023-06-26T02:44:43;100455.28;;;14.25;62.54
59545;BME280;45368;55.002;-1.592;2023-06-26T02:47:10;100452.03;;;14.65;61.61
59545;BME280;45368;55.002;-1.592;2023-06-26T02:49:37;100455.64;;;14.38;62.14
59545;BME280;45368;55.002;-1.592;2023-06-26T02:52:04;100453.98;;;14.54;61.48
59545;BME280;45368;55.002;-1.592;2023-06-26T02:54:32;100457.43;;;14.72;61.36
59545;BME280;45368;55.002;-1.592;2023-06-26T02:56:58;100461.61;;;14.80;60.76
59545;BME280;45368;55.002;-1.592;2023-06-26T02:59:26;100472.93;;;14.07;63.93
59545;BME280;45368;55.002;-1.592;2023-06-26T03:01:53;100474.00;;;13.89;64.19
59545;BME280;45368;55.002;-1.592;2023-06-26T03:04:20;100469.42;;;14.34;62.87
59545;BME280;45368;55.002;-1.592;2023-06-26T03:06:47;100464.74;;;14.45;62.71
59545;BME280;45368;55.002;-1.592;2023-06-26T03:09:14;100471.45;;;13.53;65.67
59545;BME280;45368;55.002;-1.592;2023-06-26T03:11:40;100474.61;;;13.93;64.95
59545;BME280;45368;55.002;-1.592;2023-06-26T03:14:08;100476.03;;;13.91;64.33
59545;BME280;45368;55.002;-1.592;2023-06-26T03:16:36;100478.04;;;13.64;64.91
59545;BME280;45368;55.002;-1.592;2023-06-26T03:19:02;100479.41;;;13.49;64.24
59545;BME280;45368;55.002;-1.592;2023-06-26T03:21:29;100486.24;;;14.16;62.97
59545;BME280;45368;55.002;-1.592;2023-06-26T03:23:56;100482.07;;;13.99;62.65
59545;BME280;45368;55.002;-1.592;2023-06-26T03:26:23;100481.33;;;14.07;63.22
59545;BME280;45368;55.002;-1.592;2023-06-26T03:28:51;100482.33;;;13.94;62.99
59545;BME280;45368;55.002;-1.592;2023-06-26T03:31:18;100482.18;;;13.92;62.12
59545;BME280;45368;55.002;-1.592;2023-06-26T03:33:44;100492.33;;;14.44;63.16
59545;BME280;45368;55.002;-1.592;2023-06-26T03:36:11;100486.84;;;13.68;63.46
59545;BME280;45368;55.002;-1.592;2023-06-26T03:38:39;100495.87;;;13.39;65.26
59545;BME280;45368;55.002;-1.592;2023-06-26T03:41:07;100495.61;;;13.80;63.75
59545;BME280;45368;55.002;-1.592;2023-06-26T03:43:34;100498.53;;;13.55;63.89
59545;BME280;45368;55.002;-1.592;2023-06-26T03:46:01;100501.41;;;13.89;62.91
59545;BME280;45368;55.002;-1.592;2023-06-26T03:48:28;100502.20;;;13.53;64.14
59545;BME280;45368;55.002;-1.592;2023-06-26T03:50:55;100509.00;;;13.08;65.46
59545;BME280;45368;55.002;-1.592;2023-06-26T03:53:22;100505.89;;;13.54;63.28
59545;BME280;45368;55.002;-1.592;2023-06-26T03:55:49;100510.45;;;12.95;65.85
59545;BME280;45368;55.002;-1.592;2023-06-26T03:58:16;100520.72;;;12.48;65.43
59545;BME280;45368;55.002;-1.592;2023-06-26T04:00:43;100516.14;;;13.34;65.31
59545;BME280;45368;55.002;-1.592;2023-06-26T04:03:11;100516.90;;;12.85;65.53
59545;BME280;45368;55.002;-1.592;2023-06-26T04:05:37;100519.30;;;13.05;65.43
59545;BME280;45368;55.002;-1.592;2023-06-26T04:08:04;100523.08;;;12.12;67.78
59545;BME280;45368;55.002;-1.592;2023-06-26T04:10:32;100523.25;;;13.19;65.40
59545;BME280;45368;55.002;-1.592;2023-06-26T04:13:00;100519.51;;;12.85;66.74
59545;BME280;45368;55.002;-1.592;2023-06-26T04:15:27;100522.85;;;12.76;67.03
59545;BME280;45368;55.002;-1.592;2023-06-26T04:17:54;100523.89;;;13.54;65.13
59545;BME280;45368;55.002;-1.592;2023-06-26T04:20:21;100532.18;;;12.81;66.69
59545;BME280;45368;55.002;-1.592;2023-06-26T04:22:48;100534.52;;;13.12;67.10
59545;BME280;45368;55.002;-1.592;2023-06-26T04:25:15;100543.94;;;12.95;68.00
59545;BME280;45368;55.002;-1.592;2023-06-26T04:27:43;100542.65;;;12.73;66.61
59545;BME280;45368;55.002;-1.592;2023-06-26T04:30:11;100546.85;;;13.07;66.08
59545;BME280;45368;55.002;-1.592;2023-06-26T04:32:38;100552.06;;;12.74;67.16
59545;BME280;45368;55.002;-1.592;2023-06-26T04:35:05;100556.14;;;12.87;65.91
59545;BME280;45368;55.002;-1.592;2023-06-26T04:37:33;100560.73;;;13.17;65.55
59545;BME280;45368;55.002;-1.592;2023-06-26T04:40:00;100561.60;;;12.66;66.59
59545;BME280;45368;55.002;-1.592;2023-06-26T04:42:27;100567.86;;;12.44;68.00
59545;BME280;45368;55.002;-1.592;2023-06-26T04:44:54;100568.90;;;12.86;66.90
59545;BME280;45368;55.002;-1.592;2023-06-26T04:47:21;100572.92;;;13.00;66.81
59545;BME280;45368;55.002;-1.592;2023-06-26T04:49:48;100566.61;;;13.38;64.77
59545;BME280;45368;55.002;-1.592;2023-06-26T04:52:16;100574.42;;;13.58;64.66
59545;BME280;45368;55.002;-1.592;2023-06-26T04:54:42;100574.08;;;13.64;64.48
59545;BME280;45368;55.002;-1.592;2023-06-26T04:57:09;100573.78;;;13.47;64.16
59545;BME280;45368;55.002;-1.592;2023-06-26T04:59:36;100578.65;;;13.32;65.09
59545;BME280;45368;55.002;-1.592;2023-06-26T05:02:06;100584.79;;;12.53;67.33
59545;BME280;45368;55.002;-1.592;2023-06-26T05:04:34;100587.83;;;12.82;67.13
59545;BME280;45368;55.002;-1.592;2023-06-26T05:07:01;100586.98;;;13.76;64.25
59545;BME280;45368;55.002;-1.592;2023-06-26T05:09:28;100592.01;;;13.75;64.15
59545;BME280;45368;55.002;-1.592;2023-06-26T05:11:56;100584.25;;;13.95;63.22
59545;BME280;45368;55.002;-1.592;2023-06-26T05:14:23;100582.87;;;14.39;61.29
59545;BME280;45368;55.002;-1.592;2023-06-26T05:16:50;100594.44;;;13.75;63.39
59545;BME280;45368;55.002;-1.592;2023-06-26T05:19:17;100590.83;;;13.70;62.10
59545;BME280;45368;55.002;-1.592;2023-06-26T05:21:44;100588.96;;;14.25;60.96
59545;BME280;45368;55.002;-1.592;2023-06-26T05:24:13;100586.39;;;15.03;59.90
59545;BME280;45368;55.002;-1.592;2023-06-26T05:26:43;100588.16;;;14.92;59.29
59545;BME280;45368;55.002;-1.592;2023-06-26T05:29:10;100597.93;;;14.78;59.08
59545;BME280;45368;55.002;-1.592;2023-06-26T05:31:41;100598.78;;;14.81;59.19
59545;BME280;45368;55.002;-1.592;2023-06-26T05:34:10;100605.74;;;14.09;61.01
59545;BME280;45368;55.002;-1.592;2023-06-26T05:36:39;100608.55;;;14.67;59.49
59545;BME280;45368;55.002;-1.592;2023-06-26T05:39:09;100607.02;;;14.39;60.83
59545;BME280;45368;55.002;-1.592;2023-06-26T05:41:37;100612.68;;;14.63;60.74
59545;BME280;45368;55.002;-1.592;2023-06-26T05:44:04;100619.67;;;14.35;61.26
59545;BME280;45368;55.002;-1.592;2023-06-26T05:46:32;100621.24;;;14.53;60.74
59545;BME280;45368;55.002;-1.592;2023-06-26T05:49:00;100627.13;;;14.46;60.22
59545;BME280;45368;55.002;-1.592;2023-06-26T05:51:27;100626.62;;;14.24;60.35
59545;BME280;45368;55.002;-1.592;2023-06-26T05:53:55;100629.89;;;14.26;61.43
59545;BME280;45368;55.002;-1.592;2023-06-26T05:56:23;100637.88;;;13.87;62.41
59545;BME280;45368;55.002;-1.592;2023-06-26T05:58:51;100632.11;;;14.07;61.43
59545;BME280;45368;55.002;-1.592;2023-06-26T06:01:18;100636.74;;;14.76;59.64
59545;BME280;45368;55.002;-1.592;2023-06-26T06:03:46;100634.51;;;14.97;59.39
59545;BME280;45368;55.002;-1.592;2023-06-26T06:06:13;100634.96;;;14.76;58.99
59545;BME280;45368;55.002;-1.592;2023-06-26T06:08:40;100633.56;;;15.30;58.19
59545;BME280;45368;55.002;-1.592;2023-06-26T06:11:07;100638.77;;;15.02;58.93
59545;BME280;45368;55.002;-1.592;2023-06-26T06:13:34;100632.26;;;14.60;59.35
59545;BME280;45368;55.002;-1.592;2023-06-26T06:16:03;100628.16;;;15.07;58.65
59545;BME280;45368;55.002;-1.592;2023-06-26T06:18:30;100627.94;;;15.42;57.42
59545;BME280;45368;55.002;-1.592;2023-06-26T06:20:57;100628.96;;;15.10;57.58
59545;BME280;45368;55.002;-1.592;2023-06-26T06:23:24;100631.43;;;15.13;58.40
59545;BME280;45368;55.002;-1.592;2023-06-26T06:25:52;100633.84;;;14.62;59.35
59545;BME280;45368;55.002;-1.592;2023-06-26T06:28:19;100634.57;;;15.33;58.19
59545;BME280;45368;55.002;-1.592;2023-06-26T06:30:46;100633.00;;;15.27;57.62
59545;BME280;45368;55.002;-1.592;2023-06-26T06:33:13;100633.33;;;15.60;56.68
59545;BME280;45368;55.002;-1.592;2023-06-26T06:35:40;100639.55;;;15.14;57.91
59545;BME280;45368;55.002;-1.592;2023-06-26T06:38:07;100634.42;;;16.09;56.04
59545;BME280;45368;55.002;-1.592;2023-06-26T06:40:34;100639.49;;;15.61;56.53
59545;BME280;45368;55.002;-1.592;2023-06-26T06:43:01;100644.63;;;14.82;59.10
59545;BME280;45368;55.002;-1.592;2023-06-26T06:45:29;100647.28;;;15.40;58.22
59545;BME280;45368;55.002;-1.592;2023-06-26T06:47:56;100652.11;;;15.55;57.53
59545;BME280;45368;55.002;-1.592;2023-06-26T06:50:24;100655.31;;;15.42;57.60
59545;BME280;45368;55.002;-1.592;2023-06-26T06:52:51;100658.07;;;14.95;58.25
59545;BME280;45368;55.002;-1.592;2023-06-26T06:55:18;100663.07;;;14.95;59.46
59545;BME280;45368;55.002;-1.592;2023-06-26T06:57:44;100661.11;;;15.54;58.13
59545;BME280;45368;55.002;-1.592;2023-06-26T07:00:13;100665.82;;;15.34;58.19
59545;BME280;45368;55.002;-1.592;2023-06-26T07:02:44;100668.62;;;15.68;58.22
59545;BME280;45368;55.002;-1.592;2023-06-26T07:05:12;100680.28;;;14.33;60.86
59545;BME280;45368;55.002;-1.592;2023-06-26T07:07:39;100680.06;;;15.04;59.93
59545;BME280;45368;55.002;-1.592;2023-06-26T07:10:08;100680.85;;;15.07;59.60
59545;BME280;45368;55.002;-1.592;2023-06-26T07:12:36;100682.40;;;15.11;59.79
59545;BME280;45368;55.002;-1.592;2023-06-26T07:15:05;100672.39;;;15.36;58.51
59545;BME280;45368;55.002;-1.592;2023-06-26T07:17:33;100672.32;;;15.85;57.25
59545;BME280;45368;55.002;-1.592;2023-06-26T07:20:01;100670.01;;;16.27;56.22
59545;BME280;45368;55.002;-1.592;2023-06-26T07:22:29;100680.70;;;16.38;56.20
59545;BME280;45368;55.002;-1.592;2023-06-26T07:24:56;100680.17;;;15.35;56.40
59545;BME280;45368;55.002;-1.592;2023-06-26T07:27:23;100683.50;;;15.73;55.78
59545;BME280;45368;55.002;-1.592;2023-06-26T07:29:51;100672.30;;;15.91;55.52
59545;BME280;45368;55.002;-1.592;2023-06-26T07:32:17;100673.14;;;15.79;54.58
59545;BME280;45368;55.002;-1.592;2023-06-26T07:34:44;100683.62;;;15.44;55.52
59545;BME280;45368;55.002;-1.592;2023-06-26T07:37:11;100681.32;;;16.48;53.92
59545;BME280;45368;55.002;-1.592;2023-06-26T07:39:38;100677.41;;;16.11;53.28
59545;BME280;45368;55.002;-1.592;2023-06-26T07:42:06;100685.79;;;16.34;53.17
59545;BME280;45368;55.002;-1.592;2023-06-26T07:44:33;100678.40;;;16.30;52.45
59545;BME280;45368;55.002;-1.592;2023-06-26T07:47:01;100674.18;;;16.61;52.73
59545;BME280;45368;55.002;-1.592;2023-06-26T07:49:29;100674.75;;;17.37;51.67
59545;BME280;45368;55.002;-1.592;2023-06-26T07:51:56;100672.77;;;17.32;52.88
59545;BME280;45368;55.002;-1.592;2023-06-26T07:54:24;100678.57;;;15.84;52.81
59545;BME280;45368;55.002;-1.592;2023-06-26T07:56:54;100687.82;;;15.88;53.37
59545;BME280;45368;55.002;-1.592;2023-06-26T07:59:21;100689.42;;;15.99;53.98
59545;BME280;45368;55.002;-1.592;2023-06-26T08:01:49;100684.88;;;16.09;52.89
59545;BME280;45368;55.002;-1.592;2023-06-26T08:04:18;100685.91;;;16.97;50.71
59545;BME280;45368;55.002;-1.592;2023-06-26T08:06:45;100689.19;;;16.75;51.10
59545;BME280;45368;55.002;-1.592;2023-06-26T08:09:12;100686.05;;;17.27;49.95
59545;BME280;45368;55.002;-1.592;2023-06-26T08:11:39;100687.40;;;16.66;50.39
59545;BME280;45368;55.002;-1.592;2023-06-26T08:14:06;100688.05;;;16.65;51.13
59545;BME280;45368;55.002;-1.592;2023-06-26T08:16:33;100691.27;;;17.03;50.82
59545;BME280;45368;55.002;-1.592;2023-06-26T08:19:01;100691.78;;;16.99;50.19
59545;BME280;45368;55.002;-1.592;2023-06-26T08:21:29;100688.21;;;17.35;49.10
59545;BME280;45368;55.002;-1.592;2023-06-26T08:23:56;100693.72;;;17.13;50.25
59545;BME280;45368;55.002;-1.592;2023-06-26T08:26:24;100689.64;;;16.95;50.44
59545;BME280;45368;55.002;-1.592;2023-06-26T08:28:51;100692.74;;;17.72;49.07
59545;BME280;45368;55.002;-1.592;2023-06-26T08:31:19;100689.19;;;17.75;48.91
59545;BME280;45368;55.002;-1.592;2023-06-26T08:33:47;100694.75;;;17.38;49.48
59545;BME280;45368;55.002;-1.592;2023-06-26T08:36:14;100697.52;;;18.15;48.66
59545;BME280;45368;55.002;-1.592;2023-06-26T08:38:43;100702.57;;;17.27;49.64
59545;BME280;45368;55.002;-1.592;2023-06-26T08:41:10;100708.77;;;16.99;49.48
59545;BME280;45368;55.002;-1.592;2023-06-26T08:43:37;100713.02;;;17.22;48.65
59545;BME280;45368;55.002;-1.592;2023-06-26T08:46:05;100713.33;;;16.99;48.59
59545;BME280;45368;55.002;-1.592;2023-06-26T08:48:33;100708.61;;;17.26;46.91
59545;BME280;45368;55.002;-1.592;2023-06-26T08:51:08;100712.00;;;16.94;47.18
59545;BME280;45368;55.002;-1.592;2023-06-26T08:53:40;100710.45;;;17.46;45.69
59545;BME280;45368;55.002;-1.592;2023-06-26T08:56:12;100711.90;;;16.93;46.85
59545;BME280;45368;55.002;-1.592;2023-06-26T08:58:41;100715.00;;;17.39;46.91
59545;BME280;45368;55.002;-1.592;2023-06-26T09:01:10;100713.49;;;17.73;46.28
59545;BME280;45368;55.002;-1.592;2023-06-26T09:03:38;100703.95;;;18.37;46.18
59545;BME280;45368;55.002;-1.592;2023-06-26T09:06:05;100710.02;;;17.49;45.82
59545;BME280;45368;55.002;-1.592;2023-06-26T09:08:33;100719.32;;;17.17;46.79
59545;BME280;45368;55.002;-1.592;2023-06-26T09:11:00;100737.00;;;16.73;50.68
59545;BME280;45368;55.002;-1.592;2023-06-26T09:13:29;100730.36;;;16.35;51.16
59545;BME280;45368;55.002;-1.592;2023-06-26T09:15:57;100730.48;;;16.32;49.80
59545;BME280;45368;55.002;-1.592;2023-06-26T09:18:24;100736.82;;;15.44;52.83
59545;BME280;45368;55.002;-1.592;2023-06-26T09:20:51;100736.05;;;15.44;53.71
59545;BME280;45368;55.002;-1.592;2023-06-26T09:23:21;100734.95;;;16.08;53.61
59545;BME280;45368;55.002;-1.592;2023-06-26T09:25:48;100737.42;;;15.61;53.33
59545;BME280;45368;55.002;-1.592;2023-06-26T09:28:18;100738.18;;;15.52;52.94
59545;BME280;45368;55.002;-1.592;2023-06-26T09:30:45;100744.71;;;15.15;54.32
59545;BME280;45368;55.002;-1.592;2023-06-26T09:33:14;100734.47;;;15.65;53.61
59545;BME280;45368;55.002;-1.592;2023-06-26T09:35:42;100736.61;;;16.22;53.46
59545;BME280;45368;55.002;-1.592;2023-06-26T09:38:11;100738.56;;;16.52;51.96
59545;BME280;45368;55.002;-1.592;2023-06-26T09:40:39;100735.75;;;17.09;50.97
59545;BME280;45368;55.002;-1.592;2023-06-26T09:43:07;100728.19;;;17.39;50.24
59545;BME280;45368;55.002;-1.592;2023-06-26T09:45:36;100732.30;;;17.01;50.32
59545;BME280;45368;55.002;-1.592;2023-06-26T09:48:03;100728.58;;;17.55;50.44
59545;BME280;45368;55.002;-1.592;2023-06-26T09:50:32;100728.19;;;17.43;51.34
59545;BME280;45368;55.002;-1.592;2023-06-26T09:53:07;100731.85;;;17.61;51.90
59545;BME280;45368;55.002;-1.592;2023-06-26T09:55:35;100731.06;;;16.80;50.29
59545;BME280;45368;55.002;-1.592;2023-06-26T09:58:02;100741.86;;;17.04;48.45
59545;BME280;45368;55.002;-1.592;2023-06-26T10:00:30;100739.88;;;17.64;46.39
59545;BME280;45368;55.002;-1.592;2023-06-26T10:02:58;100748.55;;;16.99;47.07
59545;BME280;45368;55.002;-1.592;2023-06-26T10:05:26;100749.23;;;17.19;45.98
59545;BME280;45368;55.002;-1.592;2023-06-26T10:07:57;100744.58;;;17.40;46.32
59545;BME280;45368;55.002;-1.592;2023-06-26T10:10:26;100753.40;;;17.67;47.91
59545;BME280;45368;55.002;-1.592;2023-06-26T10:12:58;100754.10;;;17.74;46.90
59545;BME280;45368;55.002;-1.592;2023-06-26T10:15:26;100762.63;;;18.60;44.86
59545;BME280;45368;55.002;-1.592;2023-06-26T10:17:56;100761.11;;;17.64;44.97
59545;BME280;45368;55.002;-1.592;2023-06-26T10:20:25;100770.71;;;16.81;47.13
59545;BME280;45368;55.002;-1.592;2023-06-26T10:22:53;100773.74;;;17.35;45.29
59545;BME280;45368;55.002;-1.592;2023-06-26T10:25:24;100774.85;;;17.35;44.96
59545;BME280;45368;55.002;-1.592;2023-06-26T10:27:55;100766.27;;;17.55;45.59
59545;BME280;45368;55.002;-1.592;2023-06-26T10:30:26;100770.54;;;17.84;45.11
59545;BME280;45368;55.002;-1.592;2023-06-26T10:32:55;100765.56;;;17.93;45.54
59545;BME280;45368;55.002;-1.592;2023-06-26T10:35:23;100783.19;;;17.58;45.78
59545;BME280;45368;55.002;-1.592;2023-06-26T10:37:52;100780.47;;;17.16;44.07
59545;BME280;45368;55.002;-1.592;2023-06-26T10:40:25;100772.75;;;17.57;44.88
59545;BME280;45368;55.002;-1.592;2023-06-26T10:43:05;100780.65;;;17.85;44.23
59545;BME280;45368;55.002;-1.592;2023-06-26T10:45:34;100785.64;;;17.54;45.75
59545;BME280;45368;55.002;-1.592;2023-06-26T10:48:03;100795.48;;;17.25;46.76
59545;BME280;45368;55.002;-1.592;2023-06-26T10:50:30;100807.83;;;16.57;44.42
59545;BME280;45368;55.002;-1.592;2023-06-26T10:53:12;100802.92;;;16.41;45.31
59545;BME280;45368;55.002;-1.592;2023-06-26T10:55:44;100802.94;;;16.81;42.76
59545;BME280;45368;55.002;-1.592;2023-06-26T10:58:47;100795.58;;;16.38;44.55
59545;BME280;45368;55.002;-1.592;2023-06-26T11:01:17;100796.40;;;16.98;44.07
59545;BME280;45368;55.002;-1.592;2023-06-26T11:03:47;100799.50;;;16.68;45.27
59545;BME280;45368;55.002;-1.592;2023-06-26T11:06:17;100786.18;;;19.34;42.64
59545;BME280;45368;55.002;-1.592;2023-06-26T11:08:45;100773.38;;;22.55;37.41
59545;BME280;45368;55.002;-1.592;2023-06-26T11:11:13;100773.37;;;22.75;35.47
59545;BME280;45368;55.002;-1.592;2023-06-26T11:13:41;100771.37;;;22.51;36.63
59545;BME280;45368;55.002;-1.592;2023-06-26T11:16:11;100769.02;;;25.46;32.48
59545;BME280;45368;55.002;-1.592;2023-06-26T11:18:38;100765.75;;;24.34;32.68
59545;BME280;45368;55.002;-1.592;2023-06-26T11:21:07;100780.02;;;24.14;31.73
59545;BME280;45368;55.002;-1.592;2023-06-26T11:23:36;100779.61;;;24.59;29.41
59545;BME280;45368;55.002;-1.592;2023-06-26T11:26:20;100770.04;;;25.92;28.38
59545;BME280;45368;55.002;-1.592;2023-06-26T11:28:49;100774.87;;;25.41;29.32
59545;BME280;45368;55.002;-1.592;2023-06-26T11:31:33;100771.37;;;26.03;28.27
59545;BME280;45368;55.002;-1.592;2023-06-26T11:34:03;100764.62;;;25.96;28.10
59545;BME280;45368;55.002;-1.592;2023-06-26T11:36:31;100773.19;;;26.01;27.75
59545;BME280;45368;55.002;-1.592;2023-06-26T11:38:59;100772.43;;;25.70;28.17
59545;BME280;45368;55.002;-1.592;2023-06-26T11:41:29;100772.30;;;26.43;26.54
59545;BME280;45368;55.002;-1.592;2023-06-26T11:44:00;100775.16;;;26.82;26.38
59545;BME280;45368;55.002;-1.592;2023-06-26T11:46:28;100778.86;;;25.30;27.90
59545;BME280;45368;55.002;-1.592;2023-06-26T11:48:56;100791.79;;;24.45;27.94
59545;BME280;45368;55.002;-1.592;2023-06-26T11:51:23;100800.15;;;20.94;32.98
59545;BME280;45368;55.002;-1.592;2023-06-26T11:53:54;100795.48;;;23.36;31.52
59545;BME280;45368;55.002;-1.592;2023-06-26T11:56:21;100795.16;;;23.90;31.59
59545;BME280;45368;55.002;-1.592;2023-06-26T11:58:58;100798.74;;;23.31;31.82
59545;BME280;45368;55.002;-1.592;2023-06-26T12:01:26;100796.46;;;21.47;33.86
59545;BME280;45368;55.002;-1.592;2023-06-26T12:03:57;100805.08;;;19.51;37.13
59545;BME280;45368;55.002;-1.592;2023-06-26T12:06:26;100809.34;;;19.47;37.24
59545;BME280;45368;55.002;-1.592;2023-06-26T12:08:53;100802.83;;;20.15;36.37
59545;BME280;45368;55.002;-1.592;2023-06-26T12:11:22;100803.24;;;19.96;35.87
59545;BME280;45368;55.002;-1.592;2023-06-26T12:13:50;100807.18;;;20.60;33.38
59545;BME280;45368;55.002;-1.592;2023-06-26T12:16:19;100811.66;;;20.07;33.63
59545;BME280;45368;55.002;-1.592;2023-06-26T12:18:46;100816.64;;;19.68;34.95
59545;BME280;45368;55.002;-1.592;2023-06-26T12:21:48;100823.17;;;18.80;37.04
59545;BME280;45368;55.002;-1.592;2023-06-26T12:24:16;100818.52;;;19.07;36.47
59545;BME280;45368;55.002;-1.592;2023-06-26T12:26:45;100824.45;;;19.20;36.78
59545;BME280;45368;55.002;-1.592;2023-06-26T12:29:14;100823.68;;;19.26;37.12
59545;BME280;45368;55.002;-1.592;2023-06-26T12:31:41;100824.81;;;19.75;35.41
59545;BME280;45368;55.002;-1.592;2023-06-26T12:34:10;100825.49;;;19.63;35.91
59545;BME280;45368;55.002;-1.592;2023-06-26T12:36:42;100829.26;;;19.90;37.21
59545;BME280;45368;55.002;-1.592;2023-06-26T12:39:10;100819.36;;;19.37;36.20
59545;BME280;45368;55.002;-1.592;2023-06-26T12:41:47;100826.01;;;20.01;37.13
59545;BME280;45368;55.002;-1.592;2023-06-26T12:44:19;100832.99;;;18.67;37.48
59545;BME280;45368;55.002;-1.592;2023-06-26T12:46:47;100831.64;;;19.24;37.81
59545;BME280;45368;55.002;-1.592;2023-06-26T12:49:15;100836.35;;;19.21;37.42
59545;BME280;45368;55.002;-1.592;2023-06-26T12:51:42;100835.74;;;19.52;37.06
59545;BME280;45368;55.002;-1.592;2023-06-26T12:54:10;100841.73;;;19.44;38.09
59545;BME280;45368;55.002;-1.592;2023-06-26T12:56:38;100842.18;;;19.72;37.00
59545;BME280;45368;55.002;-1.592;2023-06-26T12:59:05;100846.53;;;18.96;38.00